createdAt,value
2019-05-25T00:01:56.018Z,18.48
2019-05-25T00:04:30.276Z,18.42
2019-05-25T00:07:02.660Z,18.39
2019-05-25T00:09:35.053Z,18.33
2019-05-25T00:12:07.407Z,18.51
2019-05-25T00:14:39.810Z,18.61
2019-05-25T00:17:12.249Z,18.65
2019-05-25T00:19:44.723Z,18.68
2019-05-25T00:22:17.146Z,18.69
2019-05-25T00:24:50.549Z,18.72
2019-05-25T00:27:23.941Z,18.75
2019-05-25T00:29:56.345Z,18.79
2019-05-25T00:32:28.588Z,18.77
2019-05-25T00:35:02.906Z,18.81
2019-05-25T00:37:34.796Z,18.76
2019-05-25T00:40:09.980Z,18.77
2019-05-25T00:42:42.367Z,18.74
2019-05-25T00:45:14.713Z,18.77
2019-05-25T00:47:47.051Z,18.80
2019-05-25T00:50:20.320Z,18.80
2019-05-25T00:52:52.627Z,18.97
2019-05-25T00:55:28.769Z,18.89
2019-05-25T00:58:04.776Z,18.80
2019-05-25T01:00:38.020Z,18.79
2019-05-25T01:03:10.310Z,18.70
2019-05-25T01:05:42.626Z,18.76
2019-05-25T01:08:16.006Z,18.79
2019-05-25T01:10:48.361Z,18.72
2019-05-25T01:13:23.199Z,18.77
2019-05-25T01:15:57.461Z,18.78
2019-05-25T01:18:30.759Z,18.73
2019-05-25T01:21:03.141Z,18.74
2019-05-25T01:23:35.421Z,18.68
2019-05-25T01:26:08.809Z,18.73
2019-05-25T01:28:42.125Z,18.70
2019-05-25T01:31:14.406Z,18.67
2019-05-25T01:33:46.761Z,18.69
2019-05-25T01:36:19.275Z,18.67
2019-05-25T01:38:52.535Z,18.69
2019-05-25T01:41:28.986Z,18.64
2019-05-25T01:44:01.258Z,18.61
2019-05-25T01:46:33.600Z,18.59
2019-05-25T01:49:05.876Z,18.63
2019-05-25T01:51:38.141Z,18.63
2019-05-25T01:54:10.344Z,18.64
2019-05-25T01:56:42.698Z,18.63
2019-05-25T01:59:14.883Z,18.70
2019-05-25T02:01:47.157Z,18.77
2019-05-25T02:04:19.515Z,18.52
2019-05-25T02:06:51.797Z,18.39
2019-05-25T02:09:24.195Z,18.36
2019-05-25T02:11:56.497Z,18.20
2019-05-25T02:14:28.989Z,18.15
2019-05-25T02:17:01.349Z,18.28
2019-05-25T02:19:33.537Z,18.23
2019-05-25T02:22:07.071Z,18.23
2019-05-25T02:24:39.334Z,18.16
2019-05-25T02:27:15.519Z,18.18
2019-05-25T02:29:47.929Z,18.24
2019-05-25T02:32:20.320Z,18.30
2019-05-25T02:34:52.597Z,18.28
2019-05-25T02:37:24.930Z,18.25
2019-05-25T02:39:57.241Z,18.24
2019-05-25T02:42:29.416Z,18.24
2019-05-25T02:45:01.664Z,18.32
2019-05-25T02:47:34.923Z,18.36
2019-05-25T02:50:08.553Z,18.38
2019-05-25T02:52:40.851Z,18.38
2019-05-25T02:55:14.344Z,18.35
2019-05-25T02:57:46.684Z,18.50
2019-05-25T03:00:23.905Z,18.52
2019-05-25T03:02:56.165Z,18.48
2019-05-25T03:05:29.450Z,18.51
2019-05-25T03:08:03.412Z,18.55
2019-05-25T03:10:36.714Z,18.59
2019-05-25T03:13:08.984Z,18.69
2019-05-25T03:15:41.344Z,18.76
2019-05-25T03:18:15.277Z,18.84
2019-05-25T03:20:51.968Z,18.85
2019-05-25T03:23:24.237Z,18.73
2019-05-25T03:25:56.549Z,18.85
2019-05-25T03:28:29.875Z,19.06
2019-05-25T03:31:02.206Z,19.05
2019-05-25T03:33:34.606Z,19.06
2019-05-25T03:36:06.985Z,19.13
2019-05-25T03:38:39.245Z,19.27
2019-05-25T03:41:12.511Z,19.34
2019-05-25T03:43:44.833Z,19.53
2019-05-25T03:46:17.136Z,19.36
2019-05-25T03:48:51.408Z,19.30
2019-05-25T03:51:23.645Z,19.18
2019-05-25T03:53:55.939Z,19.25
2019-05-25T03:56:28.259Z,19.30
2019-05-25T03:59:00.715Z,19.68
2019-05-25T04:01:33.135Z,19.60
2019-05-25T04:04:05.576Z,19.85
2019-05-25T04:06:37.934Z,20.25
2019-05-25T04:09:10.257Z,20.11
2019-05-25T04:11:42.456Z,20.36
2019-05-25T04:14:14.780Z,20.41
2019-05-25T04:16:49.101Z,20.07
2019-05-25T04:19:21.443Z,20.34
2019-05-25T04:21:54.164Z,20.50
2019-05-25T04:24:26.430Z,20.86
2019-05-25T04:26:58.597Z,20.53
2019-05-25T04:29:30.840Z,20.49
2019-05-25T04:32:03.084Z,20.44
2019-05-25T04:34:35.405Z,20.27
2019-05-25T04:37:07.765Z,20.19
2019-05-25T04:39:40.102Z,20.14
2019-05-25T04:42:13.508Z,20.01
2019-05-25T04:44:46.048Z,19.65
2019-05-25T04:47:26.969Z,19.90
2019-05-25T04:49:53.331Z,19.97
2019-05-25T04:52:25.622Z,20.06
2019-05-25T04:55:01.607Z,19.98
2019-05-25T04:57:33.887Z,19.78
2019-05-25T05:00:09.425Z,19.65
2019-05-25T05:02:42.079Z,19.83
2019-05-25T05:05:14.453Z,19.77
2019-05-25T05:07:46.837Z,19.85
2019-05-25T05:10:19.113Z,19.69
2019-05-25T05:12:51.483Z,19.96
2019-05-25T05:15:24.725Z,19.77
2019-05-25T05:17:57.126Z,19.95
2019-05-25T05:20:31.315Z,19.96
2019-05-25T05:23:03.628Z,19.84
2019-05-25T05:25:35.913Z,19.76
2019-05-25T05:28:09.433Z,19.89
2019-05-25T05:30:45.218Z,19.74
2019-05-25T05:33:18.833Z,19.97
2019-05-25T05:35:53.099Z,20.17
2019-05-25T05:38:27.357Z,20.00
2019-05-25T05:41:00.436Z,20.03
2019-05-25T05:43:33.340Z,19.98
2019-05-25T05:46:08.019Z,20.05
2019-05-25T05:48:40.812Z,19.94
2019-05-25T05:51:16.280Z,19.86
2019-05-25T05:53:51.247Z,19.98
2019-05-25T05:56:24.583Z,20.62
2019-05-25T05:58:56.870Z,20.59
2019-05-25T06:01:30.182Z,20.49
2019-05-25T06:04:06.181Z,21.09
2019-05-25T06:06:40.428Z,21.54
2019-05-25T06:09:12.668Z,22.58
2019-05-25T06:11:45.007Z,22.05
2019-05-25T06:14:17.212Z,22.25
2019-05-25T06:16:52.717Z,21.86
2019-05-25T06:19:25.052Z,21.55
2019-05-25T06:21:57.334Z,21.54
2019-05-25T06:24:35.598Z,22.21
2019-05-25T06:27:07.904Z,22.28
2019-05-25T06:29:40.225Z,23.91
2019-05-25T06:32:13.918Z,24.54
2019-05-25T06:34:47.686Z,25.34
2019-05-25T06:37:20.077Z,25.93
2019-05-25T06:39:52.361Z,27.17
2019-05-25T06:42:24.489Z,28.15
2019-05-25T06:44:56.882Z,29.07
2019-05-25T06:47:29.126Z,28.44
2019-05-25T06:50:07.739Z,28.88
2019-05-25T06:52:39.926Z,28.18
2019-05-25T06:55:13.531Z,26.52
2019-05-25T06:57:45.869Z,26.29
2019-05-25T07:00:18.745Z,24.84
2019-05-25T07:02:51.288Z,24.66
2019-05-25T07:05:23.532Z,24.10
2019-05-25T07:07:56.821Z,25.63
2019-05-25T07:10:29.197Z,27.13
2019-05-25T07:13:03.277Z,27.34
2019-05-25T07:15:34.958Z,28.00
2019-05-25T07:18:07.208Z,29.60
2019-05-25T07:20:40.656Z,29.10
2019-05-25T07:23:13.114Z,29.45
2019-05-25T07:25:49.776Z,28.98
2019-05-25T07:28:23.060Z,28.55
2019-05-25T07:30:56.530Z,28.34
2019-05-25T07:33:28.905Z,27.67
2019-05-25T07:36:01.322Z,27.69
2019-05-25T07:38:34.641Z,27.89
2019-05-25T07:41:07.018Z,28.89
2019-05-25T07:43:39.753Z,29.02
2019-05-25T07:46:16.877Z,29.42
2019-05-25T07:48:50.273Z,30.17
2019-05-25T07:51:22.042Z,30.06
2019-05-25T07:53:54.409Z,30.31
2019-05-25T07:56:26.973Z,29.35
2019-05-25T07:58:59.260Z,29.95
2019-05-25T08:01:31.499Z,30.04
2019-05-25T08:04:06.743Z,29.62
2019-05-25T08:06:39.136Z,29.20
2019-05-25T08:09:12.492Z,29.82
2019-05-25T08:11:44.790Z,30.07
2019-05-25T08:14:18.050Z,29.33
2019-05-25T08:16:51.460Z,28.90
2019-05-25T08:19:23.739Z,27.42
2019-05-25T08:21:56.132Z,28.09
2019-05-25T08:24:28.402Z,28.22
2019-05-25T08:27:02.825Z,25.81
2019-05-25T08:29:34.337Z,26.06
2019-05-25T08:32:06.376Z,26.38
2019-05-25T08:34:38.643Z,26.04
2019-05-25T08:37:11.147Z,25.85
2019-05-25T08:39:44.431Z,25.18
2019-05-25T08:42:16.695Z,25.93
2019-05-25T08:44:50.961Z,26.13
2019-05-25T08:47:23.286Z,25.24
2019-05-25T08:49:55.533Z,25.20
2019-05-25T08:52:29.006Z,25.29
2019-05-25T08:55:02.506Z,24.25
2019-05-25T08:57:34.945Z,24.88
2019-05-25T09:00:08.320Z,25.50
2019-05-25T09:02:40.690Z,26.49
2019-05-25T09:05:13.399Z,26.70
2019-05-25T09:07:45.667Z,26.25
2019-05-25T09:10:21.250Z,26.08
2019-05-25T09:12:53.898Z,25.68
2019-05-25T09:15:26.319Z,25.28
2019-05-25T09:17:58.608Z,24.85
2019-05-25T09:20:35.910Z,24.73
2019-05-25T09:23:08.197Z,24.49
2019-05-25T09:25:41.112Z,24.70
2019-05-25T09:28:13.435Z,24.20
2019-05-25T09:30:45.785Z,24.11
2019-05-25T09:33:18.099Z,24.68
2019-05-25T09:35:51.386Z,24.73
2019-05-25T09:38:24.820Z,24.72
2019-05-25T09:40:57.214Z,24.24
2019-05-25T09:43:29.525Z,24.47
2019-05-25T09:46:03.839Z,24.51
2019-05-25T09:48:38.269Z,24.61
2019-05-25T09:51:15.161Z,24.38
2019-05-25T09:53:44.111Z,24.23
2019-05-25T09:56:16.403Z,24.41
2019-05-25T09:58:48.745Z,24.81
2019-05-25T10:01:25.521Z,25.16
2019-05-25T10:03:59.180Z,24.90
2019-05-25T10:06:35.631Z,25.18
2019-05-25T10:09:11.468Z,25.02
2019-05-25T10:11:43.797Z,23.94
2019-05-25T10:14:19.156Z,23.74
2019-05-25T10:16:51.802Z,23.26
2019-05-25T10:19:24.111Z,23.38
2019-05-25T10:21:59.429Z,23.31
2019-05-25T10:24:31.925Z,22.81
2019-05-25T10:27:05.311Z,22.79
2019-05-25T10:29:40.539Z,22.72
2019-05-25T10:32:14.032Z,22.39
2019-05-25T10:34:47.294Z,21.51
2019-05-25T10:37:19.681Z,21.04
2019-05-25T10:39:55.030Z,20.66
2019-05-25T10:42:30.331Z,20.17
2019-05-25T10:45:05.268Z,19.71
2019-05-25T10:47:37.636Z,19.24
2019-05-25T10:50:11.430Z,19.07
2019-05-25T10:52:43.802Z,18.69
2019-05-25T10:55:16.627Z,18.52
2019-05-25T10:57:48.942Z,18.53
2019-05-25T11:00:21.750Z,18.57
2019-05-25T11:02:55.164Z,18.88
2019-05-25T11:05:27.556Z,19.03
2019-05-25T11:08:01.003Z,18.98
2019-05-25T11:10:33.263Z,18.91
2019-05-25T11:13:05.690Z,19.29
2019-05-25T11:15:41.876Z,19.78
2019-05-25T11:18:15.066Z,19.59
2019-05-25T11:20:47.397Z,19.80
2019-05-25T11:23:22.200Z,20.16
2019-05-25T11:25:55.371Z,20.03
2019-05-25T11:28:27.627Z,20.40
2019-05-25T11:30:59.951Z,20.49
2019-05-25T11:33:32.320Z,20.35
2019-05-25T11:36:08.560Z,20.46
2019-05-25T11:38:40.866Z,20.33
2019-05-25T11:41:14.241Z,20.55
2019-05-25T11:43:48.606Z,20.74
2019-05-25T11:46:20.883Z,20.49
2019-05-25T11:48:56.831Z,20.56
2019-05-25T11:51:29.075Z,19.97
2019-05-25T11:54:05.510Z,19.87
2019-05-25T11:56:38.744Z,20.11
2019-05-25T11:59:14.345Z,20.16
2019-05-25T12:01:48.700Z,20.11
2019-05-25T12:04:22.070Z,20.40
2019-05-25T12:07:43.717Z,20.69
2019-05-25T12:09:58.051Z,20.46
2019-05-25T12:12:33.239Z,20.61
2019-05-25T12:15:08.202Z,20.78
2019-05-25T12:17:49.346Z,20.53
2019-05-25T12:20:26.349Z,20.44
2019-05-25T12:22:59.938Z,20.65
2019-05-25T12:25:32.332Z,20.83
2019-05-25T12:28:06.391Z,20.87
2019-05-25T12:30:41.304Z,20.58
2019-05-25T14:22:12.112Z,23.82
2019-05-25T14:25:38.352Z,23.79
2019-05-25T14:34:08.542Z,23.60
2019-05-25T14:36:48.237Z,23.84
2019-05-25T14:39:20.808Z,23.98
2019-05-25T14:41:55.512Z,23.84
2019-05-25T14:44:27.223Z,23.56
2019-05-25T14:46:59.588Z,23.57
2019-05-25T14:49:34.291Z,23.25
2019-05-25T14:52:10.927Z,23.13
2019-05-25T14:54:43.211Z,22.92
2019-05-25T14:57:35.983Z,22.91
2019-05-25T15:00:23.631Z,23.16
2019-05-25T15:03:14.335Z,23.40
2019-05-25T15:06:07.022Z,22.90
2019-05-25T15:08:42.933Z,22.95
2019-05-25T15:11:17.331Z,23.15
2019-05-25T15:13:49.326Z,23.51
2019-05-25T15:16:21.533Z,23.47
2019-05-25T15:18:53.729Z,23.26
2019-05-25T15:21:27.086Z,23.10
2019-05-25T15:23:59.301Z,23.13
2019-05-25T15:26:31.598Z,23.08
2019-05-25T15:29:04.916Z,23.09
2019-05-25T15:31:37.059Z,23.02
2019-05-25T15:34:09.406Z,22.87
2019-05-25T15:36:42.566Z,22.72
2019-05-25T15:39:15.771Z,22.70
2019-05-25T15:41:49.165Z,22.47
2019-05-25T15:44:23.296Z,22.25
2019-05-25T15:46:56.511Z,22.14
2019-05-25T15:49:33.218Z,21.96
2019-05-25T15:52:02.555Z,21.93
2019-05-25T15:54:34.727Z,21.76
2019-05-25T15:57:06.955Z,22.03
2019-05-25T15:59:40.324Z,21.96
2019-05-25T16:02:13.532Z,21.92
2019-05-25T16:04:45.784Z,21.82
2019-05-25T16:07:18.150Z,21.47
2019-05-25T16:09:50.391Z,21.37
2019-05-25T16:12:22.556Z,21.31
2019-05-25T16:14:54.764Z,21.26
2019-05-25T16:17:26.896Z,21.09
2019-05-25T16:20:00.754Z,20.99
2019-05-25T16:22:33.276Z,20.92
2019-05-25T16:25:09.645Z,20.90
2019-05-25T16:27:41.765Z,20.74
2019-05-25T16:30:14.936Z,20.72
2019-05-25T16:33:11.006Z,20.61
2019-05-25T16:35:21.185Z,20.57
2019-05-25T16:37:53.579Z,20.53
2019-05-25T16:40:26.111Z,20.49
2019-05-25T16:42:58.295Z,20.42
2019-05-25T16:45:34.116Z,20.39
2019-05-25T16:48:06.280Z,20.38
2019-05-25T16:50:38.553Z,20.28
2019-05-25T16:53:10.800Z,20.24
2019-05-25T16:55:44.904Z,20.22
2019-05-25T16:58:19.783Z,20.19
2019-05-25T17:00:56.135Z,20.17
2019-05-25T17:03:29.465Z,20.07
2019-05-25T17:06:02.948Z,20.04
2019-05-25T17:08:35.521Z,19.98
2019-05-25T17:11:07.698Z,19.91
2019-05-25T17:13:40.841Z,19.91
2019-05-25T17:16:13.141Z,19.92
2019-05-25T17:18:45.282Z,19.86
2019-05-25T17:21:18.448Z,19.78
2019-05-25T17:23:51.516Z,19.93
2019-05-25T17:26:23.587Z,19.80
2019-05-25T17:28:55.816Z,19.56
2019-05-25T17:31:27.915Z,19.72
2019-05-25T17:34:01.113Z,19.69
2019-05-25T17:36:34.224Z,19.64
2019-05-25T17:39:08.525Z,19.51
2019-05-25T17:41:40.713Z,19.50
2019-05-25T17:44:12.897Z,19.50
2019-05-25T17:46:46.265Z,19.50
2019-05-25T17:49:19.448Z,19.53
2019-05-25T17:51:51.670Z,19.42
2019-05-25T17:54:24.976Z,19.33
2019-05-25T17:56:57.287Z,19.27
2019-05-25T17:59:29.587Z,19.35
2019-05-25T18:02:02.876Z,19.21
2019-05-25T18:04:35.170Z,19.19
2019-05-25T18:07:09.759Z,19.19
2019-05-25T18:09:45.843Z,19.14
2019-05-25T18:12:19.369Z,19.09
2019-05-25T18:14:51.682Z,19.18
2019-05-25T18:17:24.122Z,19.23
2019-05-25T18:19:56.455Z,19.15
2019-05-25T18:22:29.133Z,19.10
2019-05-25T18:25:01.549Z,19.14
2019-05-25T18:27:33.980Z,19.08
2019-05-25T18:30:09.315Z,19.11
2019-05-25T18:32:44.763Z,19.04
2019-05-25T18:35:17.099Z,19.00
2019-05-25T18:37:49.444Z,18.93
2019-05-25T18:40:22.022Z,18.85
2019-05-25T18:42:54.281Z,18.81
2019-05-25T18:45:26.722Z,18.74
2019-05-25T18:47:59.089Z,18.75
2019-05-25T18:50:31.579Z,18.77
2019-05-25T18:53:04.399Z,18.83
2019-05-25T18:55:38.868Z,18.79
2019-05-25T18:58:12.156Z,19.01
2019-05-25T19:00:44.449Z,19.17
2019-05-25T19:03:16.876Z,19.13
2019-05-25T19:05:49.171Z,19.11
2019-05-25T19:08:21.605Z,18.90
2019-05-25T19:10:56.025Z,18.88
2019-05-25T19:13:28.353Z,18.85
2019-05-25T19:16:00.659Z,18.83
2019-05-25T19:18:33.042Z,18.83
2019-05-25T19:21:05.366Z,18.71
2019-05-25T19:23:37.895Z,18.75
2019-05-25T19:26:10.217Z,18.76
2019-05-25T19:28:43.453Z,18.81
2019-05-25T19:31:15.820Z,18.83
2019-05-25T19:33:48.186Z,18.81
2019-05-25T19:36:22.454Z,18.87
2019-05-25T19:38:54.868Z,18.82
2019-05-25T19:41:27.412Z,18.95
2019-05-25T19:44:00.747Z,19.07
2019-05-25T19:46:33.033Z,19.15
2019-05-25T19:49:05.293Z,19.19
2019-05-25T19:51:37.642Z,19.17
2019-05-25T19:54:10.015Z,19.15
2019-05-25T19:56:42.346Z,19.15
2019-05-25T19:59:14.780Z,19.14
2019-05-25T20:01:47.096Z,19.14
2019-05-25T20:04:20.352Z,19.13
2019-05-25T20:06:52.792Z,19.10
2019-05-25T20:09:25.075Z,19.06
2019-05-25T20:11:57.342Z,19.05
2019-05-25T20:14:29.717Z,19.02
2019-05-25T20:17:02.115Z,19.09
2019-05-25T20:19:34.515Z,19.03
2019-05-25T20:22:09.223Z,18.99
2019-05-25T20:24:40.991Z,19.01
2019-05-25T20:27:13.138Z,19.00
2019-05-25T20:29:45.498Z,19.03
2019-05-25T20:32:17.794Z,19.03
2019-05-25T20:34:50.145Z,18.94
2019-05-25T20:37:23.456Z,18.97
2019-05-25T20:39:56.798Z,18.94
2019-05-25T20:42:29.171Z,18.92
2019-05-25T20:45:01.423Z,18.89
2019-05-25T20:47:39.024Z,18.83
2019-05-25T20:50:11.637Z,18.75
2019-05-25T20:52:44.943Z,18.72
2019-05-25T20:55:17.241Z,18.72
2019-05-25T20:57:49.466Z,18.76
2019-05-25T21:00:24.123Z,18.79
2019-05-25T21:03:06.010Z,18.79
2019-05-25T21:05:46.970Z,18.80
2019-05-25T21:08:05.796Z,18.78
2019-05-25T21:10:46.361Z,18.76
2019-05-25T21:13:20.259Z,18.73
2019-05-25T21:15:52.740Z,18.67
2019-05-25T21:18:25.145Z,18.67
2019-05-25T21:20:57.428Z,18.64
2019-05-25T21:23:29.626Z,18.61
2019-05-25T21:26:03.866Z,18.59
2019-05-25T21:28:37.115Z,18.58
2019-05-25T21:31:09.315Z,18.57
2019-05-25T21:33:41.557Z,18.54
2019-05-25T21:36:14.005Z,18.50
2019-05-25T21:38:47.231Z,18.58
2019-05-25T21:41:19.656Z,18.59
2019-05-25T21:43:52.927Z,18.61
2019-05-25T21:46:26.179Z,18.60
2019-05-25T21:48:58.617Z,18.63
2019-05-25T21:51:31.915Z,18.59
2019-05-25T21:54:04.310Z,18.54
2019-05-25T21:56:37.745Z,18.48
2019-05-25T21:59:10.072Z,18.44
2019-05-25T22:01:43.354Z,18.43
2019-05-25T22:04:15.624Z,18.43
2019-05-25T22:06:48.012Z,18.47
2019-05-25T22:09:21.421Z,18.48
2019-05-25T22:11:54.820Z,18.48
2019-05-25T22:14:27.093Z,18.54
2019-05-25T22:16:59.436Z,18.53
2019-05-25T22:19:31.704Z,18.53
2019-05-25T22:22:04.123Z,18.52
2019-05-25T22:24:36.411Z,18.45
2019-05-25T22:27:08.834Z,18.49
2019-05-25T22:29:41.097Z,18.52
2019-05-25T22:32:13.329Z,18.44
2019-05-25T22:34:46.605Z,18.39
2019-05-25T22:37:18.964Z,18.37
2019-05-25T22:39:52.273Z,18.35
2019-05-25T22:42:24.584Z,18.31
2019-05-25T22:44:56.775Z,18.27
2019-05-25T22:47:30.081Z,18.21
2019-05-25T22:50:02.422Z,18.17
2019-05-25T22:52:34.756Z,18.10
2019-05-25T22:55:07.901Z,18.05
2019-05-25T22:57:40.143Z,18.03
2019-05-25T23:00:13.424Z,17.98
2019-05-25T23:02:45.729Z,17.98
2019-05-25T23:05:18.131Z,17.96
2019-05-25T23:07:50.436Z,17.89
2019-05-25T23:10:23.469Z,17.84
2019-05-25T23:12:55.768Z,17.78
2019-05-25T23:15:29.135Z,17.77
2019-05-25T23:18:01.447Z,17.76
2019-05-25T23:20:36.509Z,17.75
2019-05-25T23:23:07.895Z,17.73
2019-05-25T23:25:40.221Z,17.69
2019-05-25T23:28:12.565Z,17.67
2019-05-25T23:30:46.410Z,17.65
2019-05-25T23:33:18.873Z,17.57
2019-05-25T23:35:51.164Z,17.60
2019-05-25T23:38:23.590Z,17.58
2019-05-25T23:40:58.259Z,17.54
2019-05-25T23:43:31.935Z,17.53
2019-05-25T23:46:05.524Z,17.49
2019-05-25T23:48:37.962Z,17.46
2019-05-25T23:51:11.344Z,17.42
2019-05-25T23:53:43.668Z,17.38
2019-05-25T23:56:18.002Z,17.33
2019-05-25T23:58:50.431Z,17.32
